createdAt,value
2023-03-30T00:01:14.891Z,12.11
2023-03-30T00:03:43.359Z,12.17
2023-03-30T00:06:12.484Z,12.13
2023-03-30T00:08:39.346Z,12.15
2023-03-30T00:11:13.404Z,12.18
2023-03-30T00:13:40.535Z,12.15
2023-03-30T00:16:12.143Z,12.20
2023-03-30T00:18:39.826Z,12.16
2023-03-30T00:21:09.952Z,12.15
2023-03-30T00:23:38.349Z,12.20
2023-03-30T00:26:05.413Z,12.11
2023-03-30T00:28:32.337Z,12.12
2023-03-30T00:30:59.791Z,12.10
2023-03-30T00:33:41.518Z,12.14
2023-03-30T00:36:11.713Z,12.13
2023-03-30T00:38:38.637Z,12.06
2023-03-30T00:41:07.122Z,12.11
2023-03-30T00:43:34.180Z,12.07
2023-03-30T00:46:01.425Z,12.09
2023-03-30T00:48:34.558Z,12.11
2023-03-30T00:51:12.254Z,12.07
2023-03-30T00:53:47.229Z,12.10
2023-03-30T00:56:17.992Z,12.08
2023-03-30T00:58:45.293Z,12.10
2023-03-30T01:01:18.843Z,12.09
2023-03-30T01:03:48.070Z,12.08
2023-03-30T01:06:17.970Z,12.12
2023-03-30T01:08:45.702Z,12.13
2023-03-30T01:11:12.540Z,12.05
2023-03-30T01:13:44.962Z,12.07
2023-03-30T01:17:02.933Z,12.06
2023-03-30T01:20:28.373Z,12.10
2023-03-30T01:23:19.839Z,12.12
2023-03-30T01:26:01.552Z,12.11
2023-03-30T01:28:43.703Z,12.11
2023-03-30T01:31:52.895Z,12.09
2023-03-30T01:34:43.904Z,12.14
2023-03-30T01:37:34.502Z,12.14
2023-03-30T01:40:41.124Z,12.13
2023-03-30T01:43:38.094Z,12.18
2023-03-30T01:46:20.035Z,12.23
2023-03-30T01:48:57.957Z,12.21
2023-03-30T01:51:33.959Z,12.19
2023-03-30T01:54:08.675Z,12.03
2023-03-30T01:56:59.987Z,12.14
2023-03-30T01:59:39.150Z,12.23
2023-03-30T02:02:07.281Z,12.24
2023-03-30T02:04:40.719Z,12.27
2023-03-30T02:07:14.522Z,12.27
2023-03-30T02:09:43.909Z,12.27
2023-03-30T02:12:11.629Z,12.30
2023-03-30T02:14:41.668Z,12.31
2023-03-30T02:17:19.559Z,12.27
2023-03-30T02:19:47.627Z,12.29
2023-03-30T02:22:16.628Z,12.27
2023-03-30T02:24:46.554Z,12.27
2023-03-30T02:27:13.749Z,12.26
2023-03-30T02:29:44.533Z,12.28
2023-03-30T02:32:28.494Z,12.27
2023-03-30T02:35:33.089Z,12.32
2023-03-30T02:38:15.527Z,12.29
2023-03-30T02:41:08.774Z,12.26
2023-03-30T02:44:26.686Z,12.24
2023-03-30T02:47:09.231Z,12.19
2023-03-30T02:50:13.742Z,12.18
2023-03-30T02:52:57.000Z,12.09
2023-03-30T02:55:37.900Z,12.17
2023-03-30T02:58:24.240Z,12.16
2023-03-30T03:01:04.477Z,12.10
2023-03-30T03:03:40.167Z,12.13
2023-03-30T03:06:09.322Z,12.12
2023-03-30T03:08:39.836Z,12.14
2023-03-30T03:11:07.913Z,12.17
2023-03-30T03:13:39.535Z,12.25
2023-03-30T03:16:10.952Z,12.28
2023-03-30T03:18:44.718Z,12.29
2023-03-30T03:21:14.030Z,12.28
2023-03-30T03:23:41.143Z,12.25
2023-03-30T03:26:09.057Z,12.26
2023-03-30T03:28:36.317Z,12.30
2023-03-30T03:31:04.045Z,12.27
2023-03-30T03:33:33.687Z,12.27
2023-03-30T03:36:00.684Z,12.25
2023-03-30T03:38:28.072Z,12.19
2023-03-30T03:40:58.381Z,12.17
2023-03-30T03:43:26.091Z,12.20
2023-03-30T03:45:53.794Z,12.17
2023-03-30T03:48:23.564Z,12.17
2023-03-30T03:50:56.618Z,12.21
2023-03-30T03:53:26.565Z,12.51
2023-03-30T03:55:54.625Z,12.56
2023-03-30T03:58:22.198Z,12.50
2023-03-30T04:00:49.890Z,12.37
2023-03-30T04:03:17.070Z,12.36
2023-03-30T04:05:44.246Z,12.28
2023-03-30T04:08:11.849Z,12.30
2023-03-30T04:10:40.160Z,12.31
2023-03-30T04:13:07.683Z,12.25
2023-03-30T04:15:35.359Z,12.28
2023-03-30T04:18:02.298Z,12.26
2023-03-30T04:20:30.070Z,12.23
2023-03-30T04:22:57.279Z,12.26
2023-03-30T04:25:29.132Z,12.26
2023-03-30T04:27:57.253Z,12.14
2023-03-30T04:30:24.810Z,12.30
2023-03-30T04:33:02.766Z,12.29
2023-03-30T04:35:34.780Z,12.37
2023-03-30T04:38:02.403Z,12.35
2023-03-30T04:40:29.769Z,12.41
2023-03-30T04:43:02.360Z,12.40
2023-03-30T04:45:31.005Z,12.35
2023-03-30T04:47:58.204Z,12.33
2023-03-30T04:50:25.209Z,12.25
2023-03-30T04:52:52.072Z,12.33
2023-03-30T04:55:18.901Z,12.33
2023-03-30T04:57:46.487Z,12.31
2023-03-30T05:00:14.105Z,12.32
2023-03-30T05:02:42.132Z,12.38
2023-03-30T05:05:09.193Z,12.27
2023-03-30T05:07:36.157Z,12.25
2023-03-30T05:10:03.068Z,12.34
2023-03-30T05:12:29.908Z,12.30
2023-03-30T05:14:56.766Z,12.20
2023-03-30T05:17:23.627Z,12.16
2023-03-30T05:19:50.478Z,12.33
2023-03-30T05:22:17.332Z,12.31
2023-03-30T05:24:44.161Z,12.35
2023-03-30T05:27:11.213Z,12.32
2023-03-30T05:29:38.113Z,12.34
2023-03-30T05:32:05.065Z,12.30
2023-03-30T05:34:31.863Z,12.30
2023-03-30T05:36:58.704Z,12.21
2023-03-30T05:39:25.512Z,12.26
2023-03-30T05:41:52.953Z,12.34
2023-03-30T05:44:21.910Z,12.32
2023-03-30T05:46:49.438Z,12.32
2023-03-30T05:49:16.402Z,12.33
2023-03-30T05:51:43.239Z,12.31
2023-03-30T05:54:14.125Z,12.30
2023-03-30T05:56:42.320Z,12.30
2023-03-30T05:59:10.352Z,12.26
2023-03-30T06:01:37.637Z,12.31
2023-03-30T06:04:04.805Z,12.34
2023-03-30T06:06:32.224Z,12.34
2023-03-30T06:08:59.149Z,12.29
2023-03-30T06:11:25.989Z,12.36
2023-03-30T06:13:52.855Z,12.34
2023-03-30T06:16:19.693Z,12.22
2023-03-30T06:18:46.630Z,12.30
2023-03-30T06:21:13.602Z,12.25
2023-03-30T06:23:41.252Z,12.19
2023-03-30T06:26:09.299Z,12.24
2023-03-30T06:28:36.564Z,12.22
2023-03-30T06:31:09.131Z,12.24
2023-03-30T06:33:37.895Z,12.25
2023-03-30T06:36:11.888Z,12.24
2023-03-30T06:38:39.471Z,12.26
2023-03-30T06:41:09.958Z,12.30
2023-03-30T06:43:37.229Z,12.29
2023-03-30T06:46:05.230Z,12.25
2023-03-30T06:48:32.068Z,12.16
2023-03-30T06:50:59.304Z,12.28
2023-03-30T06:53:26.429Z,12.21
2023-03-30T06:55:56.770Z,12.29
2023-03-30T06:58:28.289Z,12.30
2023-03-30T07:00:55.894Z,12.44
2023-03-30T07:03:22.979Z,12.41
2023-03-30T07:05:52.965Z,12.46
2023-03-30T07:08:20.245Z,12.45
2023-03-30T07:10:48.825Z,12.36
2023-03-30T07:13:16.944Z,12.39
2023-03-30T07:15:44.773Z,12.39
2023-03-30T07:18:11.740Z,12.46
2023-03-30T07:20:38.913Z,12.46
2023-03-30T07:23:06.475Z,12.47
2023-03-30T07:25:33.346Z,12.52
2023-03-30T07:28:00.164Z,12.57
2023-03-30T07:30:27.567Z,12.50
2023-03-30T07:32:56.167Z,12.70
2023-03-30T07:35:24.892Z,12.68
2023-03-30T07:37:51.798Z,12.75
2023-03-30T07:40:21.235Z,12.86
2023-03-30T07:42:48.171Z,12.69
2023-03-30T07:45:16.583Z,12.93
2023-03-30T07:47:43.680Z,12.91
2023-03-30T07:50:10.838Z,12.99
2023-03-30T07:52:38.074Z,12.99
2023-03-30T07:55:05.514Z,13.01
2023-03-30T07:57:32.403Z,12.96
2023-03-30T07:59:59.399Z,13.02
2023-03-30T08:02:27.188Z,12.89
2023-03-30T08:04:54.484Z,13.03
2023-03-30T08:07:21.373Z,13.02
2023-03-30T08:09:48.305Z,13.01
2023-03-30T08:12:15.183Z,13.02
2023-03-30T08:14:42.121Z,12.98
2023-03-30T08:17:09.029Z,13.01
2023-03-30T08:19:36.016Z,13.00
2023-03-30T08:22:03.326Z,13.04
2023-03-30T08:24:30.267Z,12.98
2023-03-30T08:26:57.126Z,12.99
2023-03-30T08:29:24.022Z,12.98
2023-03-30T08:31:54.007Z,12.96
2023-03-30T08:34:20.890Z,12.98
2023-03-30T08:36:47.697Z,12.98
2023-03-30T08:39:15.510Z,12.99
2023-03-30T08:41:57.561Z,12.98
2023-03-30T08:44:39.200Z,12.99
2023-03-30T08:47:15.979Z,13.00
2023-03-30T08:49:52.418Z,13.03
2023-03-30T08:52:25.041Z,12.89
2023-03-30T08:54:52.997Z,12.91
2023-03-30T08:58:14.657Z,12.95
2023-03-30T09:00:51.542Z,13.04
2023-03-30T09:03:37.768Z,13.06
2023-03-30T09:06:19.669Z,13.09
2023-03-30T09:08:47.869Z,13.19
2023-03-30T09:11:26.091Z,13.20
2023-03-30T09:13:53.469Z,13.20
2023-03-30T09:16:35.563Z,13.34
2023-03-30T09:19:05.426Z,13.22
2023-03-30T09:21:32.469Z,13.35
2023-03-30T09:24:11.729Z,13.28
2023-03-30T09:27:03.619Z,13.33
2023-03-30T09:29:34.144Z,13.31
2023-03-30T09:32:33.250Z,13.20
2023-03-30T09:35:14.275Z,13.26
2023-03-30T09:37:41.098Z,13.33
2023-03-30T09:40:31.504Z,13.50
2023-03-30T09:43:25.723Z,13.51
2023-03-30T09:45:52.716Z,13.45
2023-03-30T09:48:19.566Z,13.19
2023-03-30T09:50:46.947Z,13.35
2023-03-30T09:53:26.926Z,13.43
2023-03-30T09:56:13.373Z,13.55
2023-03-30T09:58:41.489Z,13.51
2023-03-30T10:01:19.938Z,13.48
2023-03-30T10:04:11.007Z,13.44
2023-03-30T10:06:50.757Z,13.46
2023-03-30T10:09:22.041Z,13.43
2023-03-30T10:11:51.448Z,13.32
2023-03-30T10:14:28.804Z,13.31
2023-03-30T10:16:57.717Z,13.24
2023-03-30T10:19:26.149Z,13.35
2023-03-30T10:22:04.135Z,13.36
2023-03-30T10:24:33.996Z,13.35
2023-03-30T10:27:13.190Z,13.38
2023-03-30T10:29:48.662Z,13.34
2023-03-30T10:32:20.764Z,13.32
2023-03-30T10:34:54.492Z,13.25
2023-03-30T10:37:33.268Z,13.27
2023-03-30T10:40:09.953Z,13.29
2023-03-30T10:42:37.126Z,13.29
2023-03-30T10:45:07.070Z,13.53
2023-03-30T10:47:59.462Z,13.67
2023-03-30T10:51:03.807Z,13.75
2023-03-30T10:54:21.868Z,13.72
2023-03-30T10:56:54.429Z,13.65
2023-03-30T11:00:10.133Z,13.68
2023-03-30T11:03:12.724Z,13.77
2023-03-30T11:05:47.962Z,13.81
2023-03-30T11:08:40.889Z,13.80
2023-03-30T11:11:20.931Z,13.85
2023-03-30T11:14:01.918Z,13.80
2023-03-30T11:16:57.290Z,13.99
2023-03-30T11:19:40.472Z,14.01
2023-03-30T11:22:42.305Z,14.09
2023-03-30T11:25:23.876Z,13.92
2023-03-30T11:28:01.586Z,14.07
2023-03-30T11:30:34.928Z,13.99
2023-03-30T11:33:39.246Z,13.93
2023-03-30T11:36:27.367Z,13.94
2023-03-30T11:39:05.550Z,13.87
2023-03-30T11:41:44.283Z,13.86
2023-03-30T11:44:11.981Z,13.93
2023-03-30T11:47:13.962Z,13.85
2023-03-30T11:49:50.981Z,13.88
2023-03-30T11:52:47.867Z,13.91
2023-03-30T11:56:10.640Z,14.08
2023-03-30T11:59:02.338Z,14.12
2023-03-30T12:01:44.262Z,14.04
2023-03-30T12:04:15.937Z,14.08
2023-03-30T12:06:58.846Z,14.13
2023-03-30T12:09:37.254Z,14.08
2023-03-30T12:12:18.417Z,14.09
2023-03-30T12:15:02.828Z,14.14
2023-03-30T12:17:44.313Z,14.18
2023-03-30T12:20:18.103Z,14.17
2023-03-30T12:23:21.556Z,14.20
2023-03-30T12:26:11.153Z,14.17
2023-03-30T12:29:20.792Z,14.26
2023-03-30T12:32:03.570Z,14.19
2023-03-30T12:34:37.348Z,14.25
2023-03-30T12:37:23.908Z,14.31
2023-03-30T12:40:09.113Z,14.39
2023-03-30T12:42:54.232Z,14.40
2023-03-30T12:45:28.615Z,14.42
2023-03-30T12:48:26.394Z,14.58
2023-03-30T12:51:32.605Z,14.70
2023-03-30T12:54:38.847Z,14.65
2023-03-30T12:57:31.508Z,14.96
2023-03-30T13:00:29.236Z,15.07
2023-03-30T13:03:36.318Z,15.12
2023-03-30T13:06:07.255Z,15.26
2023-03-30T13:08:41.288Z,15.30
2023-03-30T13:11:17.355Z,15.30
2023-03-30T13:13:51.625Z,15.36
2023-03-30T13:16:52.618Z,15.32
2023-03-30T13:19:34.199Z,15.31
2023-03-30T13:22:12.938Z,15.33
2023-03-30T13:24:54.067Z,15.43
2023-03-30T13:27:36.404Z,15.52
2023-03-30T13:30:09.208Z,15.55
2023-03-30T13:33:00.904Z,15.62
2023-03-30T13:36:05.260Z,15.60
2023-03-30T13:39:04.427Z,15.65
2023-03-30T13:42:05.599Z,15.67
2023-03-30T13:44:53.948Z,15.70
2023-03-30T13:47:47.910Z,15.73
2023-03-30T13:50:27.313Z,15.91
2023-03-30T13:52:56.166Z,16.06
2023-03-30T13:55:35.831Z,15.98
2023-03-30T13:58:20.695Z,15.92
2023-03-30T14:00:52.601Z,16.07
2023-03-30T14:03:55.281Z,16.11
2023-03-30T14:06:31.842Z,16.19
2023-03-30T14:09:07.381Z,16.23
2023-03-30T14:11:34.931Z,16.24
2023-03-30T14:14:04.875Z,16.28
2023-03-30T14:16:38.406Z,16.40
2023-03-30T14:19:21.810Z,16.46
2023-03-30T14:21:50.253Z,16.54
2023-03-30T14:24:21.156Z,16.70
2023-03-30T14:26:50.226Z,16.59
2023-03-30T14:29:30.326Z,16.63
2023-03-30T14:34:33.752Z,16.52
2023-03-30T14:37:06.253Z,16.58
2023-03-30T14:39:44.757Z,16.56
2023-03-30T14:42:20.142Z,16.54
2023-03-30T14:44:50.660Z,16.53
2023-03-30T14:47:22.232Z,16.56
2023-03-30T14:49:51.910Z,16.45
2023-03-30T14:52:25.652Z,16.56
2023-03-30T14:55:06.672Z,16.40
2023-03-30T14:57:38.426Z,16.36
2023-03-30T15:00:20.593Z,16.37
2023-03-30T15:02:55.141Z,16.29
2023-03-30T15:05:28.841Z,16.19
2023-03-30T15:07:55.786Z,16.21
2023-03-30T15:10:44.524Z,16.18
2023-03-30T15:13:25.032Z,16.12
2023-03-30T15:15:54.319Z,16.11
2023-03-30T15:18:27.106Z,16.13
2023-03-30T15:20:56.051Z,16.11
2023-03-30T15:23:24.765Z,16.06
2023-03-30T15:25:56.171Z,16.24
2023-03-30T15:28:23.052Z,16.06
2023-03-30T15:30:53.136Z,16.20
2023-03-30T15:33:25.406Z,16.16
2023-03-30T15:35:53.919Z,16.18
2023-03-30T15:38:35.965Z,16.24
2023-03-30T15:41:04.138Z,16.07
2023-03-30T15:43:33.602Z,16.27
2023-03-30T15:46:13.760Z,16.38
2023-03-30T15:48:47.024Z,16.35
2023-03-30T15:51:22.735Z,16.35
2023-03-30T15:54:04.737Z,16.28
2023-03-30T15:56:49.652Z,16.31
2023-03-30T15:59:19.975Z,16.26
2023-03-30T16:01:55.499Z,16.15
2023-03-30T16:04:24.833Z,16.25
2023-03-30T16:06:52.794Z,16.16
2023-03-30T16:09:19.868Z,16.23
2023-03-30T16:11:47.221Z,16.33
2023-03-30T16:14:20.184Z,16.32
2023-03-30T16:16:47.820Z,16.38
2023-03-30T16:19:18.220Z,16.50
2023-03-30T16:21:45.702Z,16.51
2023-03-30T16:24:13.142Z,16.47
2023-03-30T16:26:40.026Z,16.44
2023-03-30T16:29:19.950Z,16.36
2023-03-30T16:31:47.397Z,16.32
2023-03-30T16:34:14.244Z,16.37
2023-03-30T16:36:41.397Z,16.30
2023-03-30T16:39:27.723Z,16.24
2023-03-30T16:41:55.970Z,16.25
2023-03-30T16:44:25.045Z,16.20
2023-03-30T16:46:52.629Z,16.17
2023-03-30T16:49:25.525Z,16.16
2023-03-30T16:51:55.389Z,16.13
2023-03-30T16:54:31.850Z,16.07
2023-03-30T16:57:00.095Z,16.12
2023-03-30T16:59:30.284Z,16.10
2023-03-30T17:01:57.300Z,15.92
2023-03-30T17:04:24.136Z,15.97
2023-03-30T17:06:51.125Z,16.12
2023-03-30T17:09:19.538Z,16.07
2023-03-30T17:11:47.916Z,15.95
2023-03-30T17:14:15.676Z,15.96
2023-03-30T17:16:42.700Z,15.91
2023-03-30T17:19:14.376Z,15.85
2023-03-30T17:21:43.837Z,15.79
2023-03-30T17:24:12.500Z,15.81
2023-03-30T17:26:39.918Z,15.71
2023-03-30T17:29:06.729Z,15.64
2023-03-30T17:31:33.860Z,15.62
2023-03-30T17:34:00.929Z,15.55
2023-03-30T17:36:28.931Z,15.40
2023-03-30T17:38:56.648Z,15.43
2023-03-30T17:41:23.596Z,15.41
2023-03-30T17:43:51.543Z,15.31
2023-03-30T17:46:20.655Z,15.30
2023-03-30T17:48:47.668Z,15.21
2023-03-30T17:51:14.526Z,15.04
2023-03-30T17:53:41.565Z,15.17
2023-03-30T17:56:12.675Z,15.16
2023-03-30T17:58:39.489Z,15.11
2023-03-30T18:01:09.113Z,15.07
2023-03-30T18:03:39.109Z,15.09
2023-03-30T18:06:06.450Z,15.10
2023-03-30T18:08:33.458Z,15.15
2023-03-30T18:11:01.338Z,15.11
2023-03-30T18:13:30.458Z,15.14
2023-03-30T18:15:59.604Z,15.02
2023-03-30T18:18:29.567Z,14.92
2023-03-30T18:21:05.396Z,14.85
2023-03-30T18:23:34.306Z,14.77
2023-03-30T18:26:02.162Z,14.91
2023-03-30T18:28:31.455Z,14.89
2023-03-30T18:30:58.546Z,14.80
2023-03-30T18:33:27.109Z,14.73
2023-03-30T18:35:56.812Z,14.80
2023-03-30T18:38:25.526Z,14.81
2023-03-30T18:40:57.388Z,14.67
2023-03-30T18:43:26.263Z,14.49
2023-03-30T18:45:54.477Z,14.53
2023-03-30T18:48:22.249Z,14.51
2023-03-30T18:50:54.273Z,14.51
2023-03-30T18:53:27.443Z,14.52
2023-03-30T18:55:58.024Z,14.39
2023-03-30T18:58:27.745Z,14.47
2023-03-30T19:00:55.805Z,14.34
2023-03-30T19:03:23.575Z,14.41
2023-03-30T19:05:51.378Z,14.45
2023-03-30T19:08:22.552Z,14.46
2023-03-30T19:10:53.167Z,14.46
2023-03-30T19:13:21.480Z,14.39
2023-03-30T19:15:50.854Z,14.33
2023-03-30T19:18:18.467Z,14.20
2023-03-30T19:20:45.917Z,14.19
2023-03-30T19:23:17.014Z,14.15
2023-03-30T19:25:44.912Z,14.17
2023-03-30T19:28:12.850Z,14.14
2023-03-30T19:30:40.351Z,14.16
2023-03-30T19:33:19.798Z,14.06
2023-03-30T19:35:46.952Z,14.04
2023-03-30T19:38:15.368Z,14.06
2023-03-30T19:40:42.963Z,13.94
2023-03-30T19:43:10.191Z,13.80
2023-03-30T19:45:37.643Z,13.82
2023-03-30T19:48:05.163Z,13.69
2023-03-30T19:50:32.060Z,13.68
2023-03-30T19:52:59.344Z,13.76
2023-03-30T19:55:27.078Z,13.64
2023-03-30T19:57:53.927Z,13.70
2023-03-30T20:00:22.652Z,13.70
2023-03-30T20:02:52.285Z,13.70
2023-03-30T20:05:21.097Z,13.67
2023-03-30T20:07:48.944Z,13.67
2023-03-30T20:10:20.253Z,13.67
2023-03-30T20:12:48.094Z,13.61
2023-03-30T20:15:15.579Z,13.63
2023-03-30T20:17:43.134Z,13.62
2023-03-30T20:20:13.479Z,13.59
2023-03-30T20:22:43.076Z,13.48
2023-03-30T20:25:13.949Z,13.55
2023-03-30T20:27:40.859Z,13.51
2023-03-30T20:30:08.798Z,13.43
2023-03-30T20:32:35.908Z,13.48
2023-03-30T20:35:03.262Z,13.51
2023-03-30T20:37:30.132Z,13.50
2023-03-30T20:40:04.181Z,13.49
2023-03-30T20:42:32.460Z,13.47
2023-03-30T20:44:59.594Z,13.51
2023-03-30T20:47:30.450Z,13.51
2023-03-30T20:49:58.296Z,13.36
2023-03-30T20:52:25.850Z,13.41
2023-03-30T20:54:52.960Z,13.41
2023-03-30T20:57:21.340Z,13.47
2023-03-30T20:59:49.280Z,13.43
2023-03-30T21:02:18.835Z,13.44
2023-03-30T21:04:45.730Z,13.48
2023-03-30T21:07:12.845Z,13.41
2023-03-30T21:09:40.487Z,13.45
2023-03-30T21:12:09.681Z,13.43
2023-03-30T21:14:36.637Z,13.37
2023-03-30T21:17:03.975Z,13.41
2023-03-30T21:19:30.901Z,13.40
2023-03-30T21:21:57.831Z,13.45
2023-03-30T21:24:24.745Z,13.39
2023-03-30T21:26:51.655Z,13.39
2023-03-30T21:29:18.544Z,13.45
2023-03-30T21:31:48.348Z,13.43
2023-03-30T21:34:15.675Z,13.40
2023-03-30T21:36:42.703Z,13.35
2023-03-30T21:39:09.692Z,13.35
2023-03-30T21:41:36.493Z,13.36
2023-03-30T21:44:03.276Z,13.41
2023-03-30T21:46:31.099Z,13.32
2023-03-30T21:48:57.947Z,13.22
2023-03-30T21:51:28.631Z,13.18
2023-03-30T21:53:56.303Z,13.28
2023-03-30T21:56:26.080Z,13.19
2023-03-30T21:58:52.926Z,13.21
2023-03-30T22:01:21.788Z,13.21
2023-03-30T22:03:48.801Z,13.18
2023-03-30T22:06:17.534Z,13.18
2023-03-30T22:08:45.464Z,13.20
2023-03-30T22:11:19.573Z,13.25
2023-03-30T22:13:48.587Z,13.21
2023-03-30T22:16:28.752Z,13.21
2023-03-30T22:18:55.830Z,13.21
2023-03-30T22:21:29.166Z,13.23
2023-03-30T22:23:56.326Z,13.20
2023-03-30T22:26:23.585Z,13.22
2023-03-30T22:28:50.395Z,13.22
2023-03-30T22:31:17.282Z,13.21
2023-03-30T22:33:44.925Z,13.20
2023-03-30T22:36:26.792Z,13.04
2023-03-30T22:38:55.879Z,12.97
2023-03-30T22:41:26.485Z,12.96
2023-03-30T22:43:56.635Z,12.97
2023-03-30T22:46:26.026Z,13.00
2023-03-30T22:48:55.534Z,12.91
2023-03-30T22:51:26.364Z,12.95
2023-03-30T22:53:57.900Z,12.93
2023-03-30T22:56:25.747Z,12.86
2023-03-30T22:58:52.761Z,12.85
2023-03-30T23:01:21.404Z,12.83
2023-03-30T23:03:48.380Z,12.68
2023-03-30T23:06:18.763Z,12.69
2023-03-30T23:08:47.167Z,12.68
2023-03-30T23:11:14.212Z,12.70
2023-03-30T23:13:42.061Z,12.68
2023-03-30T23:16:09.276Z,12.65
2023-03-30T23:18:36.531Z,12.56
2023-03-30T23:21:06.995Z,12.53
2023-03-30T23:23:35.893Z,12.41
2023-03-30T23:26:10.004Z,12.50
2023-03-30T23:28:39.600Z,12.53
2023-03-30T23:31:15.468Z,12.43
2023-03-30T23:33:43.634Z,12.34
2023-03-30T23:36:17.012Z,12.44
2023-03-30T23:38:44.346Z,12.37
2023-03-30T23:41:15.482Z,12.44
2023-03-30T23:43:42.547Z,12.40
2023-03-30T23:46:10.405Z,12.38
2023-03-30T23:48:37.812Z,12.19
2023-03-30T23:51:05.461Z,12.25
2023-03-30T23:53:32.279Z,12.27
2023-03-30T23:55:59.749Z,12.28
2023-03-30T23:58:26.809Z,12.25
